sensor_id;sensor_type;location;lat;lon;timestamp;pressure;altitude;pressure_sealevel;temperature;humidity
71299;BME280;59083;47.974;21.722;2023-02-16T00:03:00;101871.91;;;0.59;100.00
71299;BME280;59083;47.974;21.722;2023-02-16T00:06:01;101866.84;;;0.56;100.00
71299;BME280;59083;47.974;21.722;2023-02-16T00:09:02;101862.03;;;0.49;100.00
71299;BME280;59083;47.974;21.722;2023-02-16T00:12:14;101856.13;;;0.45;100.00
71299;BME280;59083;47.974;21.722;2023-02-16T00:15:34;101852.66;;;0.45;100.00
71299;BME280;59083;47.974;21.722;2023-02-16T00:18:36;101857.72;;;0.48;100.00
71299;BME280;59083;47.974;21.722;2023-02-16T00:21:37;101856.03;;;0.47;100.00
71299;BME280;59083;47.974;21.722;2023-02-16T00:24:38;101856.22;;;0.44;100.00
71299;BME280;59083;47.974;21.722;2023-02-16T00:27:39;101858.25;;;0.38;100.00
71299;BME280;59083;47.974;21.722;2023-02-16T00:30:40;101854.84;;;0.36;100.00
71299;BME280;59083;47.974;21.722;2023-02-16T00:33:42;101857.56;;;0.35;100.00
71299;BME280;59083;47.974;21.722;2023-02-16T00:36:44;101861.94;;;0.34;100.00
71299;BME280;59083;47.974;21.722;2023-02-16T00:39:45;101860.09;;;0.36;100.00
71299;BME280;59083;47.974;21.722;2023-02-16T00:42:46;101865.75;;;0.29;100.00
71299;BME280;59083;47.974;21.722;2023-02-16T00:45:47;101861.78;;;0.37;100.00
71299;BME280;59083;47.974;21.722;2023-02-16T00:48:49;101861.03;;;0.35;100.00
71299;BME280;59083;47.974;21.722;2023-02-16T00:51:51;101854.69;;;0.39;100.00
71299;BME280;59083;47.974;21.722;2023-02-16T00:54:52;101863.31;;;0.41;100.00
71299;BME280;59083;47.974;21.722;2023-02-16T00:58:21;101856.38;;;0.40;100.00
71299;BME280;59083;47.974;21.722;2023-02-16T01:01:25;101861.59;;;0.40;100.00
71299;BME280;59083;47.974;21.722;2023-02-16T01:04:28;101862.47;;;0.41;100.00
71299;BME280;59083;47.974;21.722;2023-02-16T01:07:30;101867.81;;;0.39;100.00
71299;BME280;59083;47.974;21.722;2023-02-16T01:10:50;101860.75;;;0.40;100.00
71299;BME280;59083;47.974;21.722;2023-02-16T01:14:11;101858.25;;;0.38;100.00
71299;BME280;59083;47.974;21.722;2023-02-16T01:17:12;101853.00;;;0.38;100.00
71299;BME280;59083;47.974;21.722;2023-02-16T01:20:20;101847.75;;;0.38;100.00
71299;BME280;59083;47.974;21.722;2023-02-16T01:23:21;101840.81;;;0.37;100.00
71299;BME280;59083;47.974;21.722;2023-02-16T01:26:23;101844.38;;;0.36;100.00
71299;BME280;59083;47.974;21.722;2023-02-16T01:29:24;101840.63;;;0.40;100.00
71299;BME280;59083;47.974;21.722;2023-02-16T01:32:25;101835.56;;;0.37;100.00
71299;BME280;59083;47.974;21.722;2023-02-16T01:35:32;101835.56;;;0.37;100.00
71299;BME280;59083;47.974;21.722;2023-02-16T01:38:33;101823.31;;;0.38;100.00
71299;BME280;59083;47.974;21.722;2023-02-16T01:45:03;101826.59;;;0.41;100.00
71299;BME280;59083;47.974;21.722;2023-02-16T01:48:09;101824.06;;;0.40;100.00
71299;BME280;59083;47.974;21.722;2023-02-16T01:51:17;101838.28;;;0.36;100.00
71299;BME280;59083;47.974;21.722;2023-02-16T01:57:49;101827.97;;;0.33;100.00
71299;BME280;59083;47.974;21.722;2023-02-16T02:03:57;101823.00;;;0.28;100.00
71299;BME280;59083;47.974;21.722;2023-02-16T02:07:26;101811.75;;;0.26;100.00
71299;BME280;59083;47.974;21.722;2023-02-16T02:10:53;101815.81;;;0.16;100.00
71299;BME280;59083;47.974;21.722;2023-02-16T02:14:02;101812.75;;;0.08;100.00
71299;BME280;59083;47.974;21.722;2023-02-16T02:17:12;101806.94;;;0.03;100.00
71299;BME280;59083;47.974;21.722;2023-02-16T02:20:26;101806.16;;;0.01;100.00
71299;BME280;59083;47.974;21.722;2023-02-16T02:27:27;101806.34;;;-0.02;100.00
71299;BME280;59083;47.974;21.722;2023-02-16T02:30:41;101804.72;;;-0.05;100.00
71299;BME280;59083;47.974;21.722;2023-02-16T02:37:25;101799.75;;;-0.09;100.00
71299;BME280;59083;47.974;21.722;2023-02-16T02:43:55;101793.34;;;-0.19;100.00
71299;BME280;59083;47.974;21.722;2023-02-16T02:46:59;101791.81;;;-0.23;100.00
71299;BME280;59083;47.974;21.722;2023-02-16T02:50:01;101798.72;;;-0.22;100.00
71299;BME280;59083;47.974;21.722;2023-02-16T02:53:14;101791.03;;;-0.25;100.00
71299;BME280;59083;47.974;21.722;2023-02-16T02:56:17;101804.28;;;-0.28;100.00
71299;BME280;59083;47.974;21.722;2023-02-16T02:59:39;101797.38;;;-0.29;100.00
71299;BME280;59083;47.974;21.722;2023-02-16T03:06:25;101800.22;;;-0.34;100.00
71299;BME280;59083;47.974;21.722;2023-02-16T03:09:28;101797.72;;;-0.35;100.00
71299;BME280;59083;47.974;21.722;2023-02-16T03:12:29;101792.47;;;-0.35;100.00
71299;BME280;59083;47.974;21.722;2023-02-16T03:15:47;101784.62;;;-0.35;100.00
71299;BME280;59083;47.974;21.722;2023-02-16T03:18:49;101779.53;;;-0.38;100.00
71299;BME280;59083;47.974;21.722;2023-02-16T03:22:09;101785.34;;;-0.33;100.00
71299;BME280;59083;47.974;21.722;2023-02-16T03:25:31;101777.44;;;-0.32;100.00
71299;BME280;59083;47.974;21.722;2023-02-16T03:28:52;101774.75;;;-0.30;100.00
71299;BME280;59083;47.974;21.722;2023-02-16T03:32:12;101779.97;;;-0.30;100.00
71299;BME280;59083;47.974;21.722;2023-02-16T03:35:14;101776.00;;;-0.37;100.00
71299;BME280;59083;47.974;21.722;2023-02-16T03:38:15;101770.69;;;-0.36;100.00
71299;BME280;59083;47.974;21.722;2023-02-16T03:41:16;101787.25;;;-0.35;100.00
71299;BME280;59083;47.974;21.722;2023-02-16T03:44:18;101763.66;;;-0.35;100.00
71299;BME280;59083;47.974;21.722;2023-02-16T03:47:19;101773.22;;;-0.34;100.00
71299;BME280;59083;47.974;21.722;2023-02-16T03:50:21;101768.66;;;-0.31;100.00
71299;BME280;59083;47.974;21.722;2023-02-16T03:53:22;101774.88;;;-0.33;100.00
71299;BME280;59083;47.974;21.722;2023-02-16T03:56:23;101783.53;;;-0.31;100.00
71299;BME280;59083;47.974;21.722;2023-02-16T03:59:25;101785.53;;;-0.36;100.00
71299;BME280;59083;47.974;21.722;2023-02-16T04:02:27;101773.56;;;-0.40;100.00
71299;BME280;59083;47.974;21.722;2023-02-16T04:05:28;101771.16;;;-0.45;100.00
71299;BME280;59083;47.974;21.722;2023-02-16T04:08:30;101772.00;;;-0.45;100.00
71299;BME280;59083;47.974;21.722;2023-02-16T04:11:31;101769.56;;;-0.48;100.00
71299;BME280;59083;47.974;21.722;2023-02-16T04:14:51;101767.09;;;-0.51;100.00
71299;BME280;59083;47.974;21.722;2023-02-16T04:17:52;101770.66;;;-0.52;100.00
71299;BME280;59083;47.974;21.722;2023-02-16T04:20:54;101753.41;;;-0.56;100.00
71299;BME280;59083;47.974;21.722;2023-02-16T04:23:55;101753.25;;;-0.53;100.00
71299;BME280;59083;47.974;21.722;2023-02-16T04:26:56;101746.34;;;-0.54;100.00
71299;BME280;59083;47.974;21.722;2023-02-16T04:29:57;101745.41;;;-0.53;100.00
71299;BME280;59083;47.974;21.722;2023-02-16T04:32:58;101748.78;;;-0.51;100.00
71299;BME280;59083;47.974;21.722;2023-02-16T04:36:00;101739.25;;;-0.52;100.00
71299;BME280;59083;47.974;21.722;2023-02-16T04:39:01;101745.81;;;-0.45;100.00
71299;BME280;59083;47.974;21.722;2023-02-16T04:42:02;101743.13;;;-0.43;100.00
71299;BME280;59083;47.974;21.722;2023-02-16T04:45:04;101744.50;;;-0.52;100.00
71299;BME280;59083;47.974;21.722;2023-02-16T04:48:06;101739.91;;;-0.48;100.00
71299;BME280;59083;47.974;21.722;2023-02-16T04:51:07;101740.91;;;-0.51;100.00
71299;BME280;59083;47.974;21.722;2023-02-16T04:54:08;101746.00;;;-0.48;100.00
71299;BME280;59083;47.974;21.722;2023-02-16T04:57:10;101747.00;;;-0.50;100.00
71299;BME280;59083;47.974;21.722;2023-02-16T05:00:12;101746.94;;;-0.49;100.00
71299;BME280;59083;47.974;21.722;2023-02-16T05:03:13;101744.63;;;-0.55;100.00
71299;BME280;59083;47.974;21.722;2023-02-16T05:06:14;101745.56;;;-0.56;100.00
71299;BME280;59083;47.974;21.722;2023-02-16T05:09:16;101745.50;;;-0.54;100.00
71299;BME280;59083;47.974;21.722;2023-02-16T05:12:17;101745.75;;;-0.59;100.00
71299;BME280;59083;47.974;21.722;2023-02-16T05:15:37;101749.88;;;-0.55;100.00
71299;BME280;59083;47.974;21.722;2023-02-16T05:18:38;101741.44;;;-0.60;100.00
71299;BME280;59083;47.974;21.722;2023-02-16T05:21:39;101743.59;;;-0.68;100.00
71299;BME280;59083;47.974;21.722;2023-02-16T05:24:41;101745.28;;;-0.67;100.00
71299;BME280;59083;47.974;21.722;2023-02-16T05:27:43;101752.41;;;-0.69;100.00
71299;BME280;59083;47.974;21.722;2023-02-16T05:30:44;101755.84;;;-0.68;100.00
71299;BME280;59083;47.974;21.722;2023-02-16T05:33:45;101749.00;;;-0.71;100.00
71299;BME280;59083;47.974;21.722;2023-02-16T05:36:47;101755.94;;;-0.70;100.00
71299;BME280;59083;47.974;21.722;2023-02-16T05:39:48;101750.84;;;-0.73;100.00
71299;BME280;59083;47.974;21.722;2023-02-16T05:42:53;101754.56;;;-0.77;100.00
71299;BME280;59083;47.974;21.722;2023-02-16T05:45:55;101760.47;;;-0.73;100.00
71299;BME280;59083;47.974;21.722;2023-02-16T05:48:56;101759.72;;;-0.75;100.00
71299;BME280;59083;47.974;21.722;2023-02-16T05:51:57;101762.34;;;-0.75;100.00
71299;BME280;59083;47.974;21.722;2023-02-16T05:54:59;101770.09;;;-0.74;100.00
71299;BME280;59083;47.974;21.722;2023-02-16T05:58:00;101772.56;;;-0.71;100.00
71299;BME280;59083;47.974;21.722;2023-02-16T06:01:02;101779.25;;;-0.65;100.00
71299;BME280;59083;47.974;21.722;2023-02-16T06:04:03;101779.91;;;-0.62;100.00
71299;BME280;59083;47.974;21.722;2023-02-16T06:07:04;101779.59;;;-0.56;100.00
71299;BME280;59083;47.974;21.722;2023-02-16T06:10:06;101779.25;;;-0.50;100.00
71299;BME280;59083;47.974;21.722;2023-02-16T06:13:07;101773.38;;;-0.37;100.00
71299;BME280;59083;47.974;21.722;2023-02-16T06:16:09;101774.41;;;-0.24;100.00
71299;BME280;59083;47.974;21.722;2023-02-16T06:19:11;101775.75;;;-0.17;100.00
71299;BME280;59083;47.974;21.722;2023-02-16T06:22:12;101775.25;;;-0.08;100.00
71299;BME280;59083;47.974;21.722;2023-02-16T06:25:13;101775.84;;;-0.03;100.00
71299;BME280;59083;47.974;21.722;2023-02-16T06:28:15;101777.59;;;0.12;100.00
71299;BME280;59083;47.974;21.722;2023-02-16T06:31:16;101776.91;;;0.24;100.00
71299;BME280;59083;47.974;21.722;2023-02-16T06:34:17;101781.28;;;0.39;100.00
71299;BME280;59083;47.974;21.722;2023-02-16T06:37:18;101773.47;;;0.54;100.00
71299;BME280;59083;47.974;21.722;2023-02-16T06:40:22;101775.94;;;0.71;100.00
71299;BME280;59083;47.974;21.722;2023-02-16T06:43:23;101774.59;;;0.94;100.00
71299;BME280;59083;47.974;21.722;2023-02-16T06:46:24;101778.28;;;1.19;99.78
71299;BME280;59083;47.974;21.722;2023-02-16T06:49:26;101776.59;;;1.33;99.04
71299;BME280;59083;47.974;21.722;2023-02-16T06:52:27;101783.91;;;1.42;97.61
71299;BME280;59083;47.974;21.722;2023-02-16T06:55:28;101775.25;;;1.54;97.14
71299;BME280;59083;47.974;21.722;2023-02-16T06:58:34;101773.28;;;1.57;96.84
71299;BME280;59083;47.974;21.722;2023-02-16T07:01:35;101776.94;;;1.69;96.35
71299;BME280;59083;47.974;21.722;2023-02-16T07:04:36;101776.19;;;1.81;96.16
71299;BME280;59083;47.974;21.722;2023-02-16T07:07:37;101771.09;;;1.92;96.38
71299;BME280;59083;47.974;21.722;2023-02-16T07:10:42;101766.81;;;2.04;95.50
71299;BME280;59083;47.974;21.722;2023-02-16T07:13:45;101762.03;;;2.11;94.94
71299;BME280;59083;47.974;21.722;2023-02-16T07:16:46;101757.78;;;2.08;95.13
71299;BME280;59083;47.974;21.722;2023-02-16T07:19:47;101753.62;;;2.18;94.65
71299;BME280;59083;47.974;21.722;2023-02-16T07:22:48;101758.69;;;2.21;94.88
71299;BME280;59083;47.974;21.722;2023-02-16T07:25:49;101757.56;;;2.11;95.33
71299;BME280;59083;47.974;21.722;2023-02-16T07:28:51;101756.75;;;2.11;95.61
71299;BME280;59083;47.974;21.722;2023-02-16T07:31:52;101755.53;;;2.16;95.55
71299;BME280;59083;47.974;21.722;2023-02-16T07:34:54;101754.47;;;2.19;95.28
71299;BME280;59083;47.974;21.722;2023-02-16T07:37:55;101755.37;;;2.32;95.25
71299;BME280;59083;47.974;21.722;2023-02-16T07:40:57;101741.16;;;2.34;94.60
71299;BME280;59083;47.974;21.722;2023-02-16T07:43:58;101746.13;;;2.39;94.37
71299;BME280;59083;47.974;21.722;2023-02-16T07:46:59;101740.78;;;2.53;94.40
71299;BME280;59083;47.974;21.722;2023-02-16T07:50:00;101744.88;;;2.57;93.80
71299;BME280;59083;47.974;21.722;2023-02-16T07:53:02;101740.06;;;2.64;93.88
71299;BME280;59083;47.974;21.722;2023-02-16T07:56:03;101738.19;;;2.78;93.53
71299;BME280;59083;47.974;21.722;2023-02-16T07:59:05;101723.53;;;2.74;93.33
71299;BME280;59083;47.974;21.722;2023-02-16T08:02:06;101743.47;;;2.78;93.59
71299;BME280;59083;47.974;21.722;2023-02-16T08:05:07;101735.88;;;2.86;93.38
71299;BME280;59083;47.974;21.722;2023-02-16T08:08:08;101731.87;;;2.94;92.96
71299;BME280;59083;47.974;21.722;2023-02-16T08:11:12;101734.63;;;3.05;92.72
71299;BME280;59083;47.974;21.722;2023-02-16T08:14:14;101733.69;;;3.18;92.23
71299;BME280;59083;47.974;21.722;2023-02-16T08:17:16;101742.63;;;3.28;91.90
71299;BME280;59083;47.974;21.722;2023-02-16T08:20:17;101745.03;;;3.31;91.98
71299;BME280;59083;47.974;21.722;2023-02-16T08:23:18;101735.22;;;3.33;92.18
71299;BME280;59083;47.974;21.722;2023-02-16T08:26:24;101728.47;;;3.42;91.80
71299;BME280;59083;47.974;21.722;2023-02-16T08:29:25;101737.84;;;3.46;91.97
71299;BME280;59083;47.974;21.722;2023-02-16T08:32:27;101720.88;;;3.50;91.94
71299;BME280;59083;47.974;21.722;2023-02-16T08:35:28;101725.91;;;3.53;91.89
71299;BME280;59083;47.974;21.722;2023-02-16T08:38:32;101725.69;;;3.56;91.93
71299;BME280;59083;47.974;21.722;2023-02-16T08:41:35;101724.38;;;3.74;91.19
71299;BME280;59083;47.974;21.722;2023-02-16T08:44:36;101709.78;;;3.82;91.30
71299;BME280;59083;47.974;21.722;2023-02-16T08:47:38;101717.69;;;3.82;91.19
71299;BME280;59083;47.974;21.722;2023-02-16T08:50:44;101720.97;;;3.85;91.10
71299;BME280;59083;47.974;21.722;2023-02-16T08:54:00;101718.00;;;3.90;90.90
71299;BME280;59083;47.974;21.722;2023-02-16T08:57:02;101727.06;;;3.98;90.87
71299;BME280;59083;47.974;21.722;2023-02-16T09:00:04;101729.44;;;4.01;90.63
71299;BME280;59083;47.974;21.722;2023-02-16T09:03:24;101723.84;;;4.06;90.51
71299;BME280;59083;47.974;21.722;2023-02-16T09:06:25;101720.12;;;4.32;90.29
71299;BME280;59083;47.974;21.722;2023-02-16T09:09:26;101724.94;;;4.38;89.84
71299;BME280;59083;47.974;21.722;2023-02-16T09:12:28;101721.37;;;4.50;88.99
71299;BME280;59083;47.974;21.722;2023-02-16T09:15:31;101718.06;;;4.60;88.83
71299;BME280;59083;47.974;21.722;2023-02-16T09:18:33;101711.22;;;4.68;88.86
71299;BME280;59083;47.974;21.722;2023-02-16T09:21:36;101716.66;;;4.78;88.54
71299;BME280;59083;47.974;21.722;2023-02-16T09:24:37;101721.50;;;4.95;88.14
71299;BME280;59083;47.974;21.722;2023-02-16T09:27:38;101715.84;;;5.11;87.28
71299;BME280;59083;47.974;21.722;2023-02-16T09:30:40;101720.28;;;5.10;86.46
71299;BME280;59083;47.974;21.722;2023-02-16T09:33:42;101712.25;;;5.23;86.69
71299;BME280;59083;47.974;21.722;2023-02-16T09:36:44;101713.09;;;5.34;86.42
71299;BME280;59083;47.974;21.722;2023-02-16T09:39:45;101713.31;;;5.43;85.93
71299;BME280;59083;47.974;21.722;2023-02-16T09:46:00;101720.50;;;5.74;85.50
71299;BME280;59083;47.974;21.722;2023-02-16T09:49:03;101716.91;;;5.64;85.35
71299;BME280;59083;47.974;21.722;2023-02-16T09:55:14;101713.16;;;5.89;83.56
71299;BME280;59083;47.974;21.722;2023-02-16T09:58:19;101700.69;;;5.57;84.72
71299;BME280;59083;47.974;21.722;2023-02-16T10:09:02;101719.44;;;6.19;82.27
71299;BME280;59083;47.974;21.722;2023-02-16T10:12:07;101713.41;;;6.17;82.88
71299;BME280;59083;47.974;21.722;2023-02-16T10:15:21;101710.56;;;6.41;82.25
71299;BME280;59083;47.974;21.722;2023-02-16T10:18:31;101705.16;;;6.43;81.53
71299;BME280;59083;47.974;21.722;2023-02-16T10:21:33;101702.16;;;6.57;81.26
71299;BME280;59083;47.974;21.722;2023-02-16T10:24:43;101701.13;;;6.69;81.08
71299;BME280;59083;47.974;21.722;2023-02-16T10:28:10;101693.06;;;6.71;81.61
71299;BME280;59083;47.974;21.722;2023-02-16T10:31:40;101698.53;;;6.79;80.91
71299;BME280;59083;47.974;21.722;2023-02-16T10:38:01;101694.28;;;6.87;79.48
71299;BME280;59083;47.974;21.722;2023-02-16T10:44:36;101684.31;;;7.00;79.36
71299;BME280;59083;47.974;21.722;2023-02-16T10:47:41;101681.09;;;7.06;79.66
71299;BME280;59083;47.974;21.722;2023-02-16T10:50:55;101679.97;;;6.99;79.92
71299;BME280;59083;47.974;21.722;2023-02-16T10:54:04;101681.84;;;7.18;79.45
71299;BME280;59083;47.974;21.722;2023-02-16T10:57:27;101684.13;;;7.23;79.06
71299;BME280;59083;47.974;21.722;2023-02-16T11:00:54;101676.53;;;7.09;78.08
71299;BME280;59083;47.974;21.722;2023-02-16T11:03:58;101683.84;;;7.26;77.87
71299;BME280;59083;47.974;21.722;2023-02-16T11:07:16;101683.81;;;7.16;78.59
71299;BME280;59083;47.974;21.722;2023-02-16T11:10:46;101674.63;;;7.30;77.96
71299;BME280;59083;47.974;21.722;2023-02-16T11:13:49;101671.19;;;7.39;77.45
71299;BME280;59083;47.974;21.722;2023-02-16T11:17:04;101672.34;;;7.46;77.07
71299;BME280;59083;47.974;21.722;2023-02-16T11:20:22;101659.88;;;7.37;76.96
71299;BME280;59083;47.974;21.722;2023-02-16T11:23:30;101654.84;;;7.34;77.30
71299;BME280;59083;47.974;21.722;2023-02-16T11:26:31;101653.72;;;7.27;77.74
71299;BME280;59083;47.974;21.722;2023-02-16T11:29:33;101642.69;;;7.22;77.85
71299;BME280;59083;47.974;21.722;2023-02-16T11:32:34;101638.13;;;7.43;78.28
71299;BME280;59083;47.974;21.722;2023-02-16T11:35:41;101627.81;;;7.40;78.04
71299;BME280;59083;47.974;21.722;2023-02-16T11:38:58;101633.00;;;7.51;77.82
71299;BME280;59083;47.974;21.722;2023-02-16T11:42:02;101638.44;;;7.50;77.89
71299;BME280;59083;47.974;21.722;2023-02-16T11:45:07;101632.00;;;7.52;77.78
71299;BME280;59083;47.974;21.722;2023-02-16T11:48:13;101612.44;;;7.34;78.32
71299;BME280;59083;47.974;21.722;2023-02-16T11:51:32;101620.88;;;7.77;77.53
71299;BME280;59083;47.974;21.722;2023-02-16T11:54:34;101618.06;;;7.88;76.51
71299;BME280;59083;47.974;21.722;2023-02-16T11:57:35;101613.63;;;7.79;77.36
71299;BME280;59083;47.974;21.722;2023-02-16T12:00:38;101614.44;;;7.99;76.70
71299;BME280;59083;47.974;21.722;2023-02-16T12:10:40;101611.91;;;7.98;75.32
71299;BME280;59083;47.974;21.722;2023-02-16T12:20:35;101591.25;;;7.72;76.44
71299;BME280;59083;47.974;21.722;2023-02-16T12:23:53;101579.78;;;7.81;76.64
71299;BME280;59083;47.974;21.722;2023-02-16T12:27:02;101579.50;;;8.04;75.70
71299;BME280;59083;47.974;21.722;2023-02-16T12:33:30;101574.19;;;8.33;74.99
71299;BME280;59083;47.974;21.722;2023-02-16T12:40:14;101564.84;;;8.00;75.32
71299;BME280;59083;47.974;21.722;2023-02-16T12:46:43;101545.37;;;8.28;74.44
71299;BME280;59083;47.974;21.722;2023-02-16T12:49:58;101555.22;;;7.89;74.40
71299;BME280;59083;47.974;21.722;2023-02-16T12:56:25;101544.59;;;7.89;74.73
71299;BME280;59083;47.974;21.722;2023-02-16T12:59:41;101539.28;;;7.99;74.08
71299;BME280;59083;47.974;21.722;2023-02-16T13:02:49;101537.12;;;8.21;73.84
71299;BME280;59083;47.974;21.722;2023-02-16T13:05:59;101542.31;;;8.23;72.88
71299;BME280;59083;47.974;21.722;2023-02-16T13:09:09;101540.88;;;8.38;72.86
71299;BME280;59083;47.974;21.722;2023-02-16T13:12:33;101526.06;;;8.26;72.83
71299;BME280;59083;47.974;21.722;2023-02-16T13:15:39;101532.56;;;8.14;73.56
71299;BME280;59083;47.974;21.722;2023-02-16T13:18:42;101529.09;;;7.94;74.47
71299;BME280;59083;47.974;21.722;2023-02-16T13:28:54;101531.19;;;7.91;75.33
71299;BME280;59083;47.974;21.722;2023-02-16T13:32:07;101539.72;;;7.84;74.54
71299;BME280;59083;47.974;21.722;2023-02-16T13:45:19;101513.03;;;7.86;74.80
71299;BME280;59083;47.974;21.722;2023-02-16T13:48:25;101510.12;;;7.79;74.71
71299;BME280;59083;47.974;21.722;2023-02-16T13:51:28;101508.44;;;7.59;75.16
71299;BME280;59083;47.974;21.722;2023-02-16T13:54:40;101503.28;;;7.48;75.91
71299;BME280;59083;47.974;21.722;2023-02-16T14:00:48;101499.38;;;7.42;76.83
71299;BME280;59083;47.974;21.722;2023-02-16T14:03:50;101493.81;;;7.55;76.45
71299;BME280;59083;47.974;21.722;2023-02-16T14:07:19;101489.34;;;7.46;76.29
71299;BME280;59083;47.974;21.722;2023-02-16T14:11:00;101474.53;;;7.43;76.60
71299;BME280;59083;47.974;21.722;2023-02-16T14:14:45;101489.47;;;7.35;77.15
71299;BME280;59083;47.974;21.722;2023-02-16T14:17:45;101475.50;;;7.52;77.10
71299;BME280;59083;47.974;21.722;2023-02-16T14:20:59;101479.84;;;7.63;76.77
71299;BME280;59083;47.974;21.722;2023-02-16T14:24:03;101476.47;;;7.70;76.50
71299;BME280;59083;47.974;21.722;2023-02-16T14:27:10;101477.03;;;7.64;76.70
71299;BME280;59083;47.974;21.722;2023-02-16T14:30:35;101473.69;;;7.62;76.79
71299;BME280;59083;47.974;21.722;2023-02-16T14:34:02;101475.94;;;7.57;77.23
71299;BME280;59083;47.974;21.722;2023-02-16T14:37:20;101473.69;;;7.53;77.50
71299;BME280;59083;47.974;21.722;2023-02-16T14:43:40;101469.50;;;7.31;78.79
71299;BME280;59083;47.974;21.722;2023-02-16T14:53:44;101464.22;;;7.31;79.18
71299;BME280;59083;47.974;21.722;2023-02-16T14:57:01;101475.25;;;7.26;79.80
71299;BME280;59083;47.974;21.722;2023-02-16T15:03:57;101462.66;;;7.19;80.22
71299;BME280;59083;47.974;21.722;2023-02-16T15:07:03;101457.78;;;7.24;80.17
71299;BME280;59083;47.974;21.722;2023-02-16T15:10:05;101467.56;;;7.14;80.38
71299;BME280;59083;47.974;21.722;2023-02-16T15:13:09;101462.53;;;7.11;80.51
71299;BME280;59083;47.974;21.722;2023-02-16T15:16:20;101464.66;;;7.17;80.44
71299;BME280;59083;47.974;21.722;2023-02-16T15:19:26;101461.41;;;7.13;80.01
71299;BME280;59083;47.974;21.722;2023-02-16T15:22:29;101460.56;;;7.13;79.98
71299;BME280;59083;47.974;21.722;2023-02-16T15:25:36;101459.47;;;7.05;80.31
71299;BME280;59083;47.974;21.722;2023-02-16T15:28:39;101460.16;;;6.98;80.81
71299;BME280;59083;47.974;21.722;2023-02-16T15:31:42;101459.31;;;6.97;80.80
71299;BME280;59083;47.974;21.722;2023-02-16T15:34:44;101449.97;;;7.03;80.64
71299;BME280;59083;47.974;21.722;2023-02-16T15:37:46;101449.41;;;6.99;80.73
71299;BME280;59083;47.974;21.722;2023-02-16T15:40:56;101452.19;;;6.98;80.90
71299;BME280;59083;47.974;21.722;2023-02-16T15:43:58;101442.69;;;6.95;80.82
71299;BME280;59083;47.974;21.722;2023-02-16T15:47:13;101449.69;;;6.96;80.58
71299;BME280;59083;47.974;21.722;2023-02-16T15:50:21;101443.53;;;6.96;80.66
71299;BME280;59083;47.974;21.722;2023-02-16T15:53:32;101439.63;;;6.90;80.94
71299;BME280;59083;47.974;21.722;2023-02-16T15:56:46;101439.63;;;6.90;81.26
71299;BME280;59083;47.974;21.722;2023-02-16T15:59:50;101439.63;;;6.90;81.17
71299;BME280;59083;47.974;21.722;2023-02-16T16:02:54;101434.63;;;6.87;81.21
71299;BME280;59083;47.974;21.722;2023-02-16T16:06:02;101439.91;;;6.87;81.31
71299;BME280;59083;47.974;21.722;2023-02-16T16:09:06;101444.94;;;6.90;81.35
71299;BME280;59083;47.974;21.722;2023-02-16T16:12:13;101443.41;;;6.88;81.37
71299;BME280;59083;47.974;21.722;2023-02-16T16:15:21;101441.59;;;6.88;81.55
71299;BME280;59083;47.974;21.722;2023-02-16T16:18:46;101438.66;;;6.91;81.33
71299;BME280;59083;47.974;21.722;2023-02-16T16:21:50;101447.16;;;6.85;81.60
71299;BME280;59083;47.974;21.722;2023-02-16T16:24:52;101447.44;;;6.82;81.78
71299;BME280;59083;47.974;21.722;2023-02-16T16:27:53;101439.19;;;6.66;82.35
71299;BME280;59083;47.974;21.722;2023-02-16T16:34:41;101428.31;;;6.19;84.66
71299;BME280;59083;47.974;21.722;2023-02-16T16:37:42;101433.31;;;6.22;84.43
71299;BME280;59083;47.974;21.722;2023-02-16T16:40:49;101435.22;;;6.11;84.81
71299;BME280;59083;47.974;21.722;2023-02-16T16:43:54;101438.28;;;6.06;85.38
71299;BME280;59083;47.974;21.722;2023-02-16T16:46:56;101444.97;;;6.10;84.96
71299;BME280;59083;47.974;21.722;2023-02-16T16:52:59;101449.81;;;6.05;84.99
71299;BME280;59083;47.974;21.722;2023-02-16T16:56:00;101449.06;;;5.94;85.30
71299;BME280;59083;47.974;21.722;2023-02-16T16:59:02;101436.47;;;5.86;85.68
71299;BME280;59083;47.974;21.722;2023-02-16T17:02:04;101443.69;;;5.84;85.85
71299;BME280;59083;47.974;21.722;2023-02-16T17:05:05;101449.00;;;5.84;85.98
71299;BME280;59083;47.974;21.722;2023-02-16T17:08:07;101444.50;;;5.75;86.22
71299;BME280;59083;47.974;21.722;2023-02-16T17:11:29;101445.97;;;5.68;86.45
71299;BME280;59083;47.974;21.722;2023-02-16T17:14:32;101439.28;;;5.64;86.69
71299;BME280;59083;47.974;21.722;2023-02-16T17:17:33;101442.63;;;5.66;86.82
71299;BME280;59083;47.974;21.722;2023-02-16T17:20:35;101439.53;;;5.61;87.13
71299;BME280;59083;47.974;21.722;2023-02-16T17:23:36;101439.00;;;5.67;86.94
71299;BME280;59083;47.974;21.722;2023-02-16T17:26:40;101445.25;;;5.66;87.09
71299;BME280;59083;47.974;21.722;2023-02-16T17:29:41;101441.38;;;5.70;86.77
71299;BME280;59083;47.974;21.722;2023-02-16T17:32:44;101436.09;;;5.70;86.73
71299;BME280;59083;47.974;21.722;2023-02-16T17:35:45;101438.03;;;5.68;87.05
71299;BME280;59083;47.974;21.722;2023-02-16T17:38:47;101426.50;;;5.69;87.01
71299;BME280;59083;47.974;21.722;2023-02-16T17:41:48;101434.16;;;5.72;87.29
71299;BME280;59083;47.974;21.722;2023-02-16T17:44:50;101432.81;;;5.77;86.85
71299;BME280;59083;47.974;21.722;2023-02-16T17:47:51;101423.34;;;5.75;87.28
71299;BME280;59083;47.974;21.722;2023-02-16T17:50:53;101430.56;;;5.73;87.45
71299;BME280;59083;47.974;21.722;2023-02-16T17:53:54;101426.66;;;5.77;87.30
71299;BME280;59083;47.974;21.722;2023-02-16T17:56:56;101421.38;;;5.77;87.37